Time;durP1;ratioP1;P1;durP2;ratioP2;P2;SDS_P1;SDS_P2;PMS_P1;PMS_P2;Temp;Humidity;BMP_temperature;BMP_pressure;BME280_temperature;BME280_humidity;BME280_pressure;Samples;Min_cycle;Max_cycle;Signal;HPM_P1;HPM_P2
2023/01/09 00:01:30;;;;;;;4.00;3.38;;;;;;;4.99;100.00;96750.78;4231416;27;20422;-72
2023/01/09 00:03:31;;;;;;;5.10;3.63;;;;;;;4.94;100.00;96747.63;4220719;27;20123;-72
2023/01/09 00:05:31;;;;;;;5.43;3.70;;;;;;;4.96;100.00;96740.56;4232768;27;20168;-72
2023/01/09 00:07:31;;;;;;;4.93;3.70;;;;;;;4.95;100.00;96741.75;4230241;27;20043;-72
2023/01/09 00:09:32;;;;;;;4.30;3.60;;;;;;;4.93;100.00;96727.66;4235083;27;20057;-72
2023/01/09 00:11:32;;;;;;;5.07;3.60;;;;;;;4.93;100.00;96727.66;4228250;27;20051;-72
2023/01/09 00:13:35;;;;;;;5.15;4.00;;;;;;;4.93;100.00;96718.66;4220582;27;20414;-72
2023/01/09 00:15:36;;;;;;;6.32;3.63;;;;;;;4.93;100.00;96724.13;4220758;27;20032;-72
2023/01/09 00:17:37;;;;;;;4.43;3.38;;;;;;;4.90;100.00;96727.66;4226148;27;20070;-72
2023/01/09 00:19:38;;;;;;;5.97;3.80;;;;;;;4.87;100.00;96726.44;4231677;27;20537;-72
2023/01/09 00:21:38;;;;;;;4.13;3.50;;;;;;;4.84;100.00;96731.91;4227458;27;20047;-72
2023/01/09 00:23:39;;;;;;;4.85;3.85;;;;;;;4.85;100.00;96709.59;4220582;27;20036;-72
2023/01/09 00:25:40;;;;;;;5.28;4.00;;;;;;;4.86;100.00;96704.91;4221071;27;20093;-72
2023/01/09 00:27:40;;;;;;;4.60;3.70;;;;;;;4.85;100.00;96706.88;4220693;27;20054;-72
2023/01/09 00:29:41;;;;;;;5.15;3.88;;;;;;;4.77;100.00;96717.00;4220747;27;20031;-72
2023/01/09 00:31:41;;;;;;;4.97;3.90;;;;;;;4.65;100.00;96711.06;4220046;27;20418;-72
2023/01/09 00:33:44;;;;;;;6.00;3.70;;;;;;;4.59;100.00;96721.59;4220149;27;20486;-72
2023/01/09 00:35:44;;;;;;;5.70;3.53;;;;;;;4.54;100.00;96712.94;4220267;27;20043;-73
2023/01/09 00:37:45;;;;;;;5.20;3.67;;;;;;;4.43;100.00;96708.16;4223540;27;20347;-72
2023/01/09 00:39:45;;;;;;;4.82;3.50;;;;;;;4.39;100.00;96712.84;4235706;27;20084;-72
2023/01/09 00:41:50;;;;;;;4.18;3.35;;;;;;;4.34;100.00;96712.41;4225880;27;20139;-72
2023/01/09 00:43:55;;;;;;;7.13;4.03;;;;;;;4.30;100.00;96700.63;4226423;27;20039;-72
2023/01/09 00:45:57;;;;;;;4.68;3.85;;;;;;;4.28;100.00;96694.75;4219515;28;20066;-72
2023/01/09 00:48:05;;;;;;;4.78;3.55;;;;;;;4.31;100.00;96694.00;4223815;27;20051;-72
2023/01/09 00:50:13;;;;;;;5.30;3.70;;;;;;;4.37;100.00;96700.69;4233403;27;20336;-72
2023/01/09 00:52:14;;;;;;;7.68;3.72;;;;;;;4.36;100.00;96694.41;4233417;27;20031;-72
2023/01/09 00:54:17;;;;;;;5.72;4.45;;;;;;;4.47;100.00;96689.03;4235626;27;20027;-72
2023/01/09 00:56:18;;;;;;;;;;;;;;;4.59;100.00;96683.22;4222959;27;20047;-72
2023/01/09 00:58:19;;;;;;;5.65;3.95;;;;;;;4.79;100.00;96698.22;4226399;27;19969;-72
2023/01/09 01:00:19;;;;;;;6.20;4.00;;;;;;;4.92;100.00;96690.47;4224541;27;20460;-72
2023/01/09 01:02:19;;;;;;;6.43;4.10;;;;;;;5.04;100.00;96703.81;4218938;28;20028;-72
2023/01/09 01:08:57;;;;;;;3.92;3.08;;;;;;;5.17;100.00;96704.28;4234553;27;20131;-72
2023/01/09 01:11:08;;;;;;;5.18;3.40;;;;;;;5.16;100.00;96699.19;4235911;27;20046;-72
2023/01/09 01:13:08;;;;;;;4.60;3.33;;;;;;;5.15;100.00;96705.84;4233783;27;20435;-72
2023/01/09 01:15:09;;;;;;;5.18;3.75;;;;;;;5.11;100.00;96703.06;4227123;27;20035;-72
2023/01/09 01:17:10;;;;;;;4.95;3.35;;;;;;;5.09;100.00;96702.69;4223024;27;20133;-72
2023/01/09 01:19:10;;;;;;;6.25;3.78;;;;;;;5.03;100.00;96696.78;4229680;27;20085;-72
2023/01/09 01:21:13;;;;;;;4.13;3.50;;;;;;;4.99;100.00;96698.72;4219995;27;20066;-72
2023/01/09 01:23:13;;;;;;;4.95;3.78;;;;;;;4.97;100.00;96701.06;4219522;27;20044;-73
2023/01/09 01:25:16;;;;;;;4.40;3.75;;;;;;;4.98;100.00;96696.38;4219993;27;20039;-72
2023/01/09 01:27:16;;;;;;;4.65;3.28;;;;;;;4.98;100.00;96697.16;4222396;27;20386;-72
2023/01/09 01:29:16;;;;;;;5.28;3.78;;;;;;;5.02;100.00;96703.44;4223290;27;20110;-72
2023/01/09 01:31:18;;;;;;;6.18;4.25;;;;;;;5.05;100.00;96697.19;4220044;27;20044;-72
2023/01/09 01:33:18;;;;;;;6.30;4.03;;;;;;;5.04;100.00;96692.84;4219547;27;20032;-72
2023/01/09 01:35:19;;;;;;;5.53;4.13;;;;;;;5.12;100.00;96698.38;4219554;27;20048;-72
2023/01/09 01:37:21;;;;;;;5.63;4.38;;;;;;;5.17;100.00;96689.78;4224694;27;20054;-72
2023/01/09 01:39:22;;;;;;;6.15;4.40;;;;;;;5.24;100.00;96684.34;4228737;27;20777;-72
2023/01/09 01:41:28;;;;;;;9.10;4.82;;;;;;;5.26;100.00;96688.25;4227091;27;20031;-72
2023/01/09 01:43:48;;;;;;;5.30;3.72;;;;;;;5.29;100.00;96681.97;4234962;27;20055;-72
2023/01/09 01:45:50;;;;;;;6.30;4.10;;;;;;;5.28;100.00;96677.69;4232675;27;20295;-72
2023/01/09 01:48:08;;;;;;;4.95;3.72;;;;;;;5.30;100.00;96682.78;4223933;27;20047;-72
2023/01/09 01:50:18;;;;;;;5.03;3.80;;;;;;;5.35;100.00;96666.72;4229630;27;20054;-72
2023/01/09 01:52:19;;;;;;;5.53;4.13;;;;;;;5.36;100.00;96665.56;4234594;27;20019;-72
2023/01/09 01:54:25;;;;;;;7.78;4.78;;;;;;;5.38;100.00;96659.72;4220789;27;20031;-72
2023/01/09 01:56:36;;;;;;;5.47;4.25;;;;;;;5.35;100.00;96665.94;4218293;27;20039;-72
2023/01/09 01:58:45;;;;;;;6.40;3.92;;;;;;;5.33;100.00;96646.34;4218848;27;20079;-72
2023/01/09 02:00:46;;;;;;;5.47;4.28;;;;;;;5.30;100.00;96656.16;4227957;27;20134;-72
2023/01/09 02:02:47;;;;;;;5.53;4.35;;;;;;;5.28;100.00;96644.75;4229835;27;20124;-72
2023/01/09 02:04:50;;;;;;;6.07;4.70;;;;;;;5.26;100.00;96649.09;4234452;27;20031;-72
2023/01/09 02:06:53;;;;;;;6.05;4.25;;;;;;;5.24;100.00;96652.22;4231897;27;20035;-72
2023/01/09 02:08:54;;;;;;;7.03;4.20;;;;;;;5.20;100.00;96650.63;4223639;27;20049;-72
2023/01/09 02:10:55;;;;;;;6.18;4.30;;;;;;;5.23;100.00;96641.63;4233157;27;20102;-72
2023/01/09 02:12:56;;;;;;;5.82;4.10;;;;;;;5.22;100.00;96637.34;4218514;27;20039;-72
2023/01/09 02:15:04;;;;;;;6.22;4.20;;;;;;;5.24;100.00;96634.97;4222180;27;20527;-72
2023/01/09 02:17:12;;;;;;;5.20;3.95;;;;;;;5.22;100.00;96638.13;4228008;27;20043;-72
2023/01/09 02:19:27;;;;;;;6.32;4.13;;;;;;;5.22;100.00;96632.63;4221748;27;20050;-72
2023/01/09 02:21:56;;;;;;;5.05;3.88;;;;;;;5.22;100.00;96627.16;4218099;27;20066;-72
2023/01/09 02:24:21;;;;;;;5.32;3.85;;;;;;;5.27;100.00;96625.97;4168208;28;20053;-72
2023/01/09 02:26:46;;;;;;;3.88;3.33;;;;;;;5.37;100.00;96616.97;4218098;27;20499;-72
2023/01/09 02:28:56;;;;;;;4.22;3.00;;;;;;;5.39;100.00;96608.38;4218297;27;20548;-72
2023/01/09 02:31:14;;;;;;;4.50;3.10;;;;;;;5.39;100.00;96613.88;4216717;27;20047;-72
2023/01/09 02:33:38;;;;;;;3.53;2.90;;;;;;;5.40;100.00;96604.47;4218292;27;20062;-72
2023/01/09 02:36:01;;;;;;;3.75;2.70;;;;;;;5.42;100.00;96600.16;4228854;27;20054;-72
2023/01/09 02:38:01;;;;;;;;;;;;;;;5.43;100.00;96596.22;4199454;27;20047;-72
2023/01/09 02:40:23;;;;;;;1.95;1.70;;;;;;;5.47;100.00;96601.72;4234902;27;20535;-72
2023/01/09 02:42:25;;;;;;;3.03;2.40;;;;;;;5.49;100.00;96597.41;4217666;27;20283;-72
2023/01/09 02:44:29;;;;;;;3.40;2.50;;;;;;;5.55;100.00;96603.31;4218637;27;20046;-72
2023/01/09 02:46:29;;;;;;;2.92;2.13;;;;;;;5.53;100.00;96589.97;4220158;27;20055;-72
2023/01/09 02:48:30;;;;;;;2.25;1.85;;;;;;;5.55;100.00;96600.56;4226642;27;20271;-72
2023/01/09 02:50:53;;;;;;;2.40;1.60;;;;;;;5.57;100.00;96601.75;4227296;27;20080;-72
2023/01/09 02:53:12;;;;;;;2.10;1.67;;;;;;;5.57;100.00;96609.19;4224477;27;20040;-72
2023/01/09 02:55:37;;;;;;;2.03;1.33;;;;;;;5.61;100.00;96602.50;4227644;27;20051;-72
2023/01/09 02:58:19;;;;;;;2.60;1.60;;;;;;;5.63;100.00;96596.66;4226746;27;20042;-72
2023/01/09 03:00:43;;;;;;;1.65;1.20;;;;;;;5.67;100.00;96591.16;4219059;27;20043;-72
2023/01/09 03:02:52;;;;;;;1.92;1.20;;;;;;;5.64;100.00;96590.00;4223985;27;20032;-72
2023/01/09 03:05:05;;;;;;;1.30;1.20;;;;;;;5.67;100.00;96582.94;4226168;27;20081;-72
2023/01/09 03:07:17;;;;;;;1.25;1.00;;;;;;;5.69;100.00;96586.84;4228039;27;20117;-72
2023/01/09 03:09:21;;;;;;;1.00;0.90;;;;;;;5.61;100.00;96564.09;4227968;27;20494;-72
2023/01/09 03:11:27;;;;;;;0.95;0.85;;;;;;;5.64;100.00;96566.09;4235608;27;20043;-72
2023/01/09 03:13:32;;;;;;;1.15;0.90;;;;;;;5.62;100.00;96568.41;4228823;27;20866;-72
2023/01/09 03:15:35;;;;;;;1.13;1.00;;;;;;;5.63;100.00;96569.22;4230143;27;20487;-72
2023/01/09 03:17:44;;;;;;;1.20;1.02;;;;;;;5.66;100.00;96571.16;4225759;27;20066;-72
2023/01/09 03:19:45;;;;;;;1.35;0.90;;;;;;;5.68;100.00;96562.53;4223504;27;20039;-72
2023/01/09 03:21:46;;;;;;;1.75;0.93;;;;;;;5.71;100.00;96567.22;4231275;27;20058;-72
2023/01/09 03:23:56;;;;;;;1.08;0.90;;;;;;;5.63;100.00;96563.72;4236895;27;20309;-72
2023/01/09 03:25:56;;;;;;;1.05;0.90;;;;;;;5.61;100.00;96564.09;4221598;27;20039;-72
2023/01/09 03:28:03;;;;;;;0.93;0.90;;;;;;;5.65;100.00;96566.88;4230028;27;20482;-72
2023/01/09 03:30:04;;;;;;;0.90;0.80;;;;;;;5.71;100.00;96556.25;4227506;27;20040;-72
2023/01/09 03:32:05;;;;;;;0.77;0.77;;;;;;;5.72;100.00;96560.59;4222404;27;20020;-72
2023/01/09 03:34:05;;;;;;;0.98;0.80;;;;;;;5.70;100.00;96565.66;4221796;27;20028;-72
2023/01/09 03:36:06;;;;;;;3.63;1.10;;;;;;;5.70;100.00;96569.19;4227899;27;20114;-72
2023/01/09 03:38:07;;;;;;;3.38;0.73;;;;;;;5.68;100.00;96562.53;4223585;27;20038;-72
2023/01/09 03:40:08;;;;;;;0.60;0.60;;;;;;;5.70;100.00;96569.19;4225764;27;20020;-72
2023/01/09 03:42:08;;;;;;;0.68;0.68;;;;;;;5.74;100.00;96552.75;4222233;27;20115;-72
2023/01/09 03:44:08;;;;;;;0.70;0.70;;;;;;;5.70;100.00;96555.47;4220894;27;20110;-72
2023/01/09 03:46:09;;;;;;;0.80;0.70;;;;;;;5.65;100.00;96558.63;4222424;27;20239;-72
2023/01/09 03:48:09;;;;;;;0.70;0.70;;;;;;;5.61;100.00;96557.84;4232068;27;20038;-72
2023/01/09 03:50:10;;;;;;;0.80;0.80;;;;;;;5.55;100.00;96549.22;4226332;27;20501;-72
2023/01/09 03:52:12;;;;;;;1.05;0.90;;;;;;;5.54;100.00;96558.59;4222148;27;20043;-72
2023/01/09 03:54:13;;;;;;;1.10;0.90;;;;;;;5.58;100.00;96559.41;4221188;27;20028;-72
2023/01/09 03:56:13;;;;;;;0.65;0.65;;;;;;;5.56;100.00;96545.31;4221384;27;20380;-72
2023/01/09 03:58:15;;;;;;;0.63;0.63;;;;;;;5.61;100.00;96555.88;4225850;27;20027;-72
2023/01/09 04:00:15;;;;;;;0.80;0.80;;;;;;;5.65;100.00;96555.88;4233254;27;20474;-72
2023/01/09 04:02:16;;;;;;;0.70;0.68;;;;;;;5.64;100.00;96549.63;4221633;27;20028;-72
2023/01/09 04:04:16;;;;;;;1.67;0.60;;;;;;;5.66;100.00;96542.94;4221085;27;20026;-72
2023/01/09 04:06:17;;;;;;;1.08;0.75;;;;;;;5.63;100.00;96533.56;4227445;27;20034;-72
2023/01/09 04:08:18;;;;;;;0.77;0.70;;;;;;;5.67;100.00;96539.03;4223461;27;20111;-72
2023/01/09 04:10:18;;;;;;;0.70;0.70;;;;;;;5.68;100.00;96544.13;4231353;27;20443;-72
2023/01/09 04:12:18;;;;;;;0.77;0.70;;;;;;;5.74;100.00;96547.25;4237383;27;20027;-72
2023/01/09 04:14:19;;;;;;;2.58;0.90;;;;;;;5.75;100.00;96544.13;4221556;27;20028;-72
2023/01/09 04:16:19;;;;;;;0.65;0.60;;;;;;;5.78;100.00;96540.56;4221607;27;20035;-72
2023/01/09 04:18:20;;;;;;;0.63;0.63;;;;;;;5.84;100.00;96536.25;4231853;27;20027;-72
2023/01/09 04:20:20;;;;;;;0.85;0.73;;;;;;;5.87;100.00;96540.97;4224501;27;20074;-72
2023/01/09 04:22:21;;;;;;;0.77;0.77;;;;;;;5.90;100.00;96537.47;4227309;27;20483;-72
2023/01/09 04:24:21;;;;;;;0.90;0.70;;;;;;;5.94;100.00;96537.47;4225241;27;20044;-72
2023/01/09 04:26:21;;;;;;;1.00;0.80;;;;;;;5.95;100.00;96530.78;4237183;27;20099;-72
2023/01/09 04:28:22;;;;;;;0.70;0.70;;;;;;;5.97;100.00;96528.44;4230086;27;20488;-72
2023/01/09 04:30:22;;;;;;;1.27;0.70;;;;;;;5.93;100.00;96530.41;4231341;27;20039;-72
2023/01/09 04:32:23;;;;;;;0.77;0.60;;;;;;;5.94;100.00;96526.47;4237231;27;20043;-72
2023/01/09 04:34:24;;;;;;;0.70;0.70;;;;;;;5.91;100.00;96530.03;4222759;27;20086;-72
2023/01/09 04:36:25;;;;;;;0.82;0.82;;;;;;;5.87;100.00;96523.72;4221320;27;20108;-72
2023/01/09 04:38:26;;;;;;;0.80;0.80;;;;;;;5.90;100.00;96528.44;4221093;27;20036;-72
2023/01/09 04:40:26;;;;;;;0.80;0.80;;;;;;;5.94;100.00;96525.69;4230586;27;20194;-72
2023/01/09 04:42:27;;;;;;;0.85;0.77;;;;;;;5.91;100.00;96525.31;4230305;27;20043;-72
2023/01/09 04:44:27;;;;;;;1.02;0.90;;;;;;;5.93;100.00;96519.41;4221587;27;20274;-72
2023/01/09 04:46:28;;;;;;;0.70;0.70;;;;;;;5.93;100.00;96526.88;4221255;27;20764;-73
2023/01/09 04:48:28;;;;;;;0.80;0.80;;;;;;;5.93;100.00;96533.16;4220581;27;20153;-72
2023/01/09 04:50:29;;;;;;;0.70;0.70;;;;;;;5.97;100.00;96547.66;4232262;27;20031;-72
2023/01/09 04:52:29;;;;;;;0.70;0.70;;;;;;;6.01;100.00;96533.91;4220696;27;20043;-72
2023/01/09 04:54:29;;;;;;;0.75;0.68;;;;;;;6.03;100.00;96524.09;4224940;27;20047;-72
2023/01/09 04:56:30;;;;;;;1.52;0.70;;;;;;;6.03;100.00;96532.34;4226218;27;20372;-72
2023/01/09 04:58:30;;;;;;;0.60;0.60;;;;;;;6.03;100.00;96526.84;4220390;27;20036;-72
2023/01/09 05:00:30;;;;;;;1.30;1.20;;;;;;;6.02;100.00;96539.00;4234015;27;20467;-72
2023/01/09 05:02:31;;;;;;;0.60;0.60;;;;;;;6.09;100.00;96535.47;4235561;27;20374;-72
2023/01/09 05:04:31;;;;;;;0.73;0.73;;;;;;;6.07;100.00;96552.34;4224240;27;20074;-72
2023/01/09 05:06:33;;;;;;;0.60;0.60;;;;;;;6.08;100.00;96547.63;4221138;27;20414;-72
2023/01/09 05:08:33;;;;;;;0.70;0.70;;;;;;;6.12;100.00;96553.91;4224166;27;20122;-72
2023/01/09 05:10:33;;;;;;;1.48;0.60;;;;;;;6.11;100.00;96564.09;4230330;27;20105;-72
2023/01/09 05:12:35;;;;;;;0.90;0.80;;;;;;;6.12;100.00;96562.13;4227913;27;20109;-72
2023/01/09 05:14:35;;;;;;;1.27;1.13;;;;;;;6.14;100.00;96568.03;4232525;27;20043;-72
2023/01/09 05:16:35;;;;;;;0.95;0.80;;;;;;;6.15;100.00;96577.84;4222215;27;20044;-73
2023/01/09 05:18:36;;;;;;;0.80;0.70;;;;;;;6.23;100.00;96564.88;4220398;27;20117;-72
2023/01/09 05:20:36;;;;;;;1.40;0.90;;;;;;;6.29;100.00;96575.06;4233846;27;20051;-72
2023/01/09 05:22:37;;;;;;;1.17;0.82;;;;;;;6.40;100.00;96577.78;4226668;27;20363;-72
2023/01/09 05:24:37;;;;;;;1.27;1.17;;;;;;;6.42;100.00;96573.44;4231432;27;20055;-72
2023/01/09 05:26:37;;;;;;;4.93;1.20;;;;;;;6.51;100.00;96586.75;4228963;27;20043;-72
2023/01/09 05:28:38;;;;;;;0.80;0.80;;;;;;;6.59;100.00;96585.56;4220106;27;20066;-72
2023/01/09 05:30:38;;;;;;;2.15;1.30;;;;;;;6.59;100.00;96602.03;4228762;27;20043;-72
2023/01/09 05:32:39;;;;;;;2.25;1.67;;;;;;;6.63;100.00;96604.81;4219897;27;20169;-72
2023/01/09 05:34:39;;;;;;;3.28;1.65;;;;;;;6.54;100.00;96596.16;4231670;27;20039;-72
2023/01/09 05:36:40;;;;;;;1.88;1.70;;;;;;;6.51;100.00;96606.00;4235415;27;20035;-72
2023/01/09 05:38:40;;;;;;;1.50;1.23;;;;;;;6.54;100.00;96607.97;4235131;27;20039;-73
2023/01/09 05:40:40;;;;;;;3.28;2.60;;;;;;;6.50;100.00;96615.41;4222048;27;20064;-73
2023/01/09 05:42:42;;;;;;;2.28;1.55;;;;;;;6.44;100.00;96619.75;4219394;27;20088;-73
2023/01/09 05:44:42;;;;;;;2.13;1.30;;;;;;;6.38;100.00;96619.38;4229361;27;20097;-73
2023/01/09 05:46:43;;;;;;;2.92;1.75;;;;;;;6.43;100.00;96626.41;4233224;27;20059;-73
2023/01/09 05:48:44;;;;;;;3.88;2.38;;;;;;;6.46;100.00;96634.69;4230303;27;20067;-73
2023/01/09 05:50:44;;;;;;;2.28;1.85;;;;;;;6.49;100.00;96627.59;4233668;27;20639;-73
2023/01/09 05:52:44;;;;;;;1.77;1.50;;;;;;;6.46;100.00;96639.38;4235320;27;20046;-73
2023/01/09 05:54:45;;;;;;;2.17;1.90;;;;;;;6.42;100.00;96644.09;4234731;27;20042;-73
2023/01/09 05:56:45;;;;;;;2.35;1.92;;;;;;;6.36;100.00;96648.41;4228012;27;20160;-73
2023/01/09 05:58:45;;;;;;;3.83;2.20;;;;;;;6.32;100.00;96647.63;4169366;27;20058;-73
2023/01/09 06:00:47;;;;;;;3.65;1.83;;;;;;;6.33;100.00;96646.47;4227796;27;20035;-73
2023/01/09 06:02:47;;;;;;;3.60;2.05;;;;;;;6.26;100.00;96643.72;4219393;27;20040;-73
2023/01/09 06:04:48;;;;;;;2.53;1.73;;;;;;;6.19;100.00;96637.03;4219965;27;20038;-73
2023/01/09 06:06:48;;;;;;;2.95;1.80;;;;;;;6.18;100.00;96646.47;4220340;27;20042;-73
2023/01/09 06:08:48;;;;;;;2.53;1.52;;;;;;;6.15;100.00;96646.47;4219244;27;20040;-73
2023/01/09 06:10:49;;;;;;;2.15;1.50;;;;;;;6.10;100.00;96653.13;4220434;27;20116;-73
2023/01/09 06:12:50;;;;;;;2.50;1.40;;;;;;;6.10;100.00;96650.38;4219083;27;20279;-73
2023/01/09 06:14:50;;;;;;;4.15;2.10;;;;;;;6.12;100.00;96660.97;4220785;27;20073;-73
2023/01/09 06:16:51;;;;;;;1.58;1.30;;;;;;;6.08;100.00;96654.72;4220641;27;20050;-73
2023/01/09 06:18:51;;;;;;;1.70;1.30;;;;;;;6.13;100.00;96649.63;4220644;27;20043;-73
2023/01/09 06:20:51;;;;;;;2.10;1.80;;;;;;;6.18;100.00;96645.69;4218631;27;20044;-73
2023/01/09 06:22:52;;;;;;;2.53;1.80;;;;;;;6.23;100.00;96659.03;4218529;27;20368;-73
2023/01/09 06:24:52;;;;;;;1.40;1.30;;;;;;;6.23;100.00;96659.03;4219598;27;20032;-73
2023/01/09 06:26:53;;;;;;;1.02;0.95;;;;;;;6.30;100.00;96655.50;4220538;27;20047;-73
2023/01/09 06:28:56;;;;;;;2.10;1.40;;;;;;;6.26;100.00;96666.47;4229268;27;20090;-73
2023/01/09 06:30:56;;;;;;;1.88;1.33;;;;;;;6.24;100.00;96676.28;4229445;27;20547;-73
2023/01/09 06:32:57;;;;;;;1.20;1.10;;;;;;;6.29;100.00;96679.44;4223075;27;20044;-73
2023/01/09 06:34:57;;;;;;;1.08;0.98;;;;;;;6.41;100.00;96691.97;4218707;27;20639;-73
2023/01/09 06:36:57;;;;;;;1.70;1.20;;;;;;;6.37;100.00;96699.41;4218988;27;20446;-72
2023/01/09 06:38:58;;;;;;;1.20;1.10;;;;;;;6.42;100.00;96716.28;4218358;27;20047;-72
2023/01/09 06:40:58;;;;;;;2.85;1.15;;;;;;;6.44;100.00;96722.16;4218459;27;20058;-72
2023/01/09 06:42:58;;;;;;;1.95;1.17;;;;;;;6.46;100.00;96724.56;4218865;27;20036;-73
2023/01/09 06:44:59;;;;;;;5.70;2.72;;;;;;;6.48;100.00;96717.47;4230657;27;20103;-73
2023/01/09 06:46:59;;;;;;;1.02;0.93;;;;;;;6.38;100.00;96720.22;4233473;27;20048;-72
2023/01/09 06:48:59;;;;;;;1.00;0.88;;;;;;;6.32;100.00;96727.28;4219598;27;20046;-72
2023/01/09 06:51:00;;;;;;;1.00;0.80;;;;;;;6.26;100.00;96737.09;4234978;27;20043;-72
2023/01/09 06:53:01;;;;;;;0.77;0.77;;;;;;;6.22;100.00;96739.06;4233921;27;20088;-72
2023/01/09 06:55:01;;;;;;;0.82;0.80;;;;;;;6.17;100.00;96751.22;4234448;27;20047;-72
2023/01/09 06:57:01;;;;;;;1.58;0.90;;;;;;;6.17;100.00;96743.75;4227375;27;20039;-72
2023/01/09 06:59:02;;;;;;;2.00;1.10;;;;;;;6.10;100.00;96749.22;4219758;27;20044;-72
2023/01/09 07:01:02;;;;;;;0.85;0.60;;;;;;;6.06;100.00;96745.72;4228121;27;20959;-73
2023/01/09 07:03:04;;;;;;;1.88;0.73;;;;;;;6.04;100.00;96769.22;4231161;27;20412;-72
2023/01/09 07:05:06;;;;;;;0.80;0.80;;;;;;;5.99;100.00;96767.66;4219660;27;20040;-72
2023/01/09 07:07:07;;;;;;;0.68;0.60;;;;;;;5.93;100.00;96758.22;4220862;27;20852;-72
2023/01/09 07:09:12;;;;;;;1.35;1.00;;;;;;;5.87;100.00;96767.97;4223495;27;20252;-72
2023/01/09 07:11:12;;;;;;;1.77;1.40;;;;;;;5.89;100.00;96771.94;4219590;27;20040;-72
2023/01/09 07:13:12;;;;;;;1.63;0.70;;;;;;;5.83;100.00;96767.97;4218849;27;20741;-72
2023/01/09 07:15:13;;;;;;;1.65;1.10;;;;;;;5.84;100.00;96790.72;4219407;27;20297;-72
2023/01/09 07:17:13;;;;;;;1.20;0.90;;;;;;;5.76;100.00;96789.13;4219854;27;20043;-72
2023/01/09 07:19:13;;;;;;;0.77;0.70;;;;;;;5.73;100.00;96789.91;4232114;27;20047;-72
2023/01/09 07:21:14;;;;;;;0.77;0.60;;;;;;;5.69;100.00;96798.13;4233920;27;20499;-72
2023/01/09 07:23:14;;;;;;;2.10;0.60;;;;;;;5.68;100.00;96788.31;4230250;27;20047;-72
2023/01/09 07:25:15;;;;;;;0.80;0.70;;;;;;;5.66;99.86;96790.66;4231931;27;20039;-72
2023/01/09 07:27:15;;;;;;;1.65;0.75;;;;;;;5.66;100.00;96795.38;4232446;27;20050;-72
2023/01/09 07:29:15;;;;;;;0.70;0.70;;;;;;;5.58;100.00;96781.63;4219288;27;20146;-72
2023/01/09 07:31:16;;;;;;;0.80;0.60;;;;;;;5.60;99.56;96784.75;4219180;27;20081;-72
2023/01/09 07:33:16;;;;;;;2.53;0.70;;;;;;;5.60;99.64;96800.44;4221155;27;20039;-72
2023/01/09 07:35:16;;;;;;;3.25;1.92;;;;;;;5.53;99.99;96798.44;4222649;27;20130;-72
2023/01/09 07:37:18;;;;;;;1.85;0.80;;;;;;;5.51;100.00;96803.53;4222202;27;20035;-72
2023/01/09 07:39:18;;;;;;;1.10;0.90;;;;;;;5.47;100.00;96800.00;4223827;27;20084;-72
2023/01/09 07:41:18;;;;;;;1.70;0.88;;;;;;;5.44;100.00;96797.22;4232072;27;20126;-72
2023/01/09 07:43:19;;;;;;;1.00;0.70;;;;;;;5.45;100.00;96807.03;4221575;27;20789;-72
2023/01/09 07:45:19;;;;;;;0.77;0.68;;;;;;;5.40;100.00;96797.22;4221923;27;20372;-72
2023/01/09 07:47:20;;;;;;;1.38;0.77;;;;;;;5.39;100.00;96819.56;4220769;28;20077;-72
2023/01/09 07:49:20;;;;;;;0.73;0.68;;;;;;;5.36;99.41;96807.38;4222066;27;20542;-72
2023/01/09 07:51:20;;;;;;;1.10;0.70;;;;;;;5.32;100.00;96815.59;4227259;27;20126;-72
2023/01/09 07:53:21;;;;;;;0.60;0.60;;;;;;;5.26;99.85;96816.34;4236087;27;20055;-72
2023/01/09 07:55:21;;;;;;;0.75;0.70;;;;;;;5.26;100.00;96824.56;4237730;27;20074;-72
2023/01/09 07:57:21;;;;;;;0.77;0.65;;;;;;;5.30;98.99;96814.41;4231919;27;20031;-72
2023/01/09 07:59:22;;;;;;;0.80;0.70;;;;;;;5.28;99.29;96819.47;4218563;28;20075;-72
2023/01/09 08:01:22;;;;;;;2.88;0.68;;;;;;;5.28;99.50;96827.72;4222008;27;20046;-72
2023/01/09 08:03:23;;;;;;;1.95;0.70;;;;;;;5.23;99.44;96825.34;4221326;27;20940;-72
2023/01/09 08:05:23;;;;;;;0.65;0.60;;;;;;;5.23;99.60;96828.09;4221396;27;20050;-72
2023/01/09 08:07:24;;;;;;;2.22;0.80;;;;;;;5.23;99.84;96847.28;4232820;27;20049;-72
2023/01/09 08:09:24;;;;;;;1.00;0.65;;;;;;;5.23;99.15;96852.75;4237235;27;20107;-72
2023/01/09 08:11:25;;;;;;;1.00;0.70;;;;;;;5.18;99.75;96862.13;4230898;27;20063;-72
2023/01/09 08:13:25;;;;;;;0.73;0.70;;;;;;;5.18;99.77;96864.06;4221123;27;20122;-72
2023/01/09 08:15:25;;;;;;;3.42;0.70;;;;;;;5.30;99.13;96858.28;4221848;27;20043;-72
2023/01/09 08:17:26;;;;;;;0.90;0.60;;;;;;;5.31;99.39;96862.59;4238732;27;20088;-72
2023/01/09 08:19:26;;;;;;;3.30;0.60;;;;;;;5.28;99.23;96858.66;4231467;27;20044;-72
2023/01/09 08:21:27;;;;;;;1.02;0.93;;;;;;;5.32;99.20;96864.19;4230232;27;20135;-72
2023/01/09 08:23:27;;;;;;;0.95;0.60;;;;;;;5.36;98.86;96860.28;4221626;27;20460;-72
2023/01/09 08:25:27;;;;;;;1.70;0.70;;;;;;;5.39;98.24;96858.75;4227722;27;20077;-72
2023/01/09 08:27:28;;;;;;;0.63;0.63;;;;;;;5.36;98.32;96856.75;4228887;27;20050;-72
2023/01/09 08:29:29;;;;;;;0.70;0.70;;;;;;;5.38;97.99;96854.44;4237963;27;20320;-72
2023/01/09 08:31:29;;;;;;;2.33;0.60;;;;;;;5.49;97.39;96854.47;4236603;27;20039;-72
2023/01/09 08:33:31;;;;;;;1.17;0.68;;;;;;;5.41;97.25;96870.09;4236304;27;20091;-72
2023/01/09 08:35:31;;;;;;;0.77;0.70;;;;;;;5.37;97.46;96874.78;4236712;27;20058;-72
2023/01/09 08:37:32;;;;;;;2.10;0.85;;;;;;;5.34;97.10;96875.53;4236876;27;20028;-72
2023/01/09 08:39:32;;;;;;;3.03;1.05;;;;;;;5.31;98.04;96876.31;4236853;27;20066;-72
2023/01/09 08:48:38;;;;;;;0.60;0.60;;;;;;;5.28;96.49;96894.31;4229798;27;20123;-72
2023/01/09 08:50:39;;;;;;;0.80;0.80;;;;;;;5.26;96.30;96898.59;4228287;27;20107;-72
2023/01/09 08:52:39;;;;;;;1.02;0.73;;;;;;;5.27;95.71;96903.69;4220575;27;20058;-72
2023/01/09 08:54:40;;;;;;;0.90;0.82;;;;;;;5.27;95.57;96908.41;4221305;27;20490;-72
2023/01/09 08:56:40;;;;;;;0.95;0.80;;;;;;;5.23;95.57;96905.66;4220590;27;20317;-72
2023/01/09 08:58:40;;;;;;;0.75;0.75;;;;;;;5.29;94.99;96908.81;4234210;27;20446;-72
2023/01/09 09:00:41;;;;;;;1.85;0.73;;;;;;;5.39;93.12;96912.81;4236182;27;20039;-72
2023/01/09 09:02:41;;;;;;;1.60;0.70;;;;;;;5.39;94.27;96913.59;4236542;27;20426;-72
2023/01/09 09:04:42;;;;;;;1.45;0.90;;;;;;;5.36;94.27;96915.13;4235710;27;20039;-72
2023/01/09 09:06:42;;;;;;;0.80;0.60;;;;;;;5.27;94.69;96919.38;4235429;27;20046;-72
2023/01/09 09:08:42;;;;;;;1.05;0.70;;;;;;;5.25;94.76;96918.97;4220615;27;20039;-72
2023/01/09 09:10:43;;;;;;;2.38;0.85;;;;;;;5.29;94.81;96922.50;4221094;27;20036;-72
2023/01/09 09:12:46;;;;;;;2.20;1.10;;;;;;;5.37;94.21;96935.09;4225547;27;20030;-72
2023/01/09 09:17:06;;;;;;;1.88;1.13;;;;;;;5.43;95.55;96939.06;4220209;27;20441;-72
2023/01/09 09:19:06;;;;;;;4.05;1.35;;;;;;;5.47;95.20;96931.66;4227029;27;20039;-72
2023/01/09 09:21:07;;;;;;;4.25;1.60;;;;;;;5.49;95.54;96934.03;4229514;27;20546;-72
2023/01/09 09:23:07;;;;;;;3.42;0.90;;;;;;;5.52;95.35;96930.50;4228484;27;20124;-72
2023/01/09 09:25:07;;;;;;;1.70;0.73;;;;;;;5.65;93.55;96934.53;4220792;27;20702;-72
2023/01/09 09:27:08;;;;;;;1.55;0.80;;;;;;;5.69;93.51;96929.03;4220251;27;20467;-72
2023/01/09 09:29:09;;;;;;;1.40;0.98;;;;;;;5.76;93.44;96923.59;4220302;27;20043;-72
2023/01/09 09:31:09;;;;;;;2.45;0.88;;;;;;;5.81;93.65;96924.03;4220470;27;20213;-72
2023/01/09 09:33:10;;;;;;;0.82;0.70;;;;;;;5.87;92.42;96919.72;4224554;27;20042;-72
2023/01/09 09:35:11;;;;;;;4.32;1.17;;;;;;;5.89;91.96;96924.84;4235497;27;20039;-72
2023/01/09 09:37:11;;;;;;;2.22;1.10;;;;;;;5.91;92.35;96928.03;4220076;27;20054;-72
2023/01/09 09:39:11;;;;;;;4.35;0.95;;;;;;;6.01;91.64;96943.75;4232574;27;20461;-72
2023/01/09 09:46:37;;;;;;;0.85;0.80;;;;;;;6.09;92.49;96944.56;4219392;27;20470;-72
2023/01/09 09:48:44;;;;;;;2.47;1.10;;;;;;;6.13;91.71;96948.94;4219752;27;20035;-72
2023/01/09 09:50:53;;;;;;;2.40;0.93;;;;;;;6.16;92.10;96950.88;4220372;27;20073;-72
2023/01/09 09:53:10;;;;;;;1.45;0.90;;;;;;;6.26;92.42;96946.59;4219188;27;20047;-72
2023/01/09 09:55:17;;;;;;;1.05;0.80;;;;;;;6.31;91.62;96956.44;4221449;27;20061;-72
2023/01/09 09:57:24;;;;;;;3.17;0.90;;;;;;;6.31;91.07;96949.00;4221253;27;20051;-72
2023/01/09 09:59:31;;;;;;;2.72;1.02;;;;;;;6.42;91.34;96954.50;4220308;27;20051;-72